sensor_id;sensor_type;location;lat;lon;timestamp;P1;durP1;ratioP1;P2;durP2;ratioP2
41167;SDS011;26906;45.658;9.272;2024-01-10T06:34:41;11.07;;;7.22;;
41167;SDS011;26906;45.658;9.272;2024-01-10T06:37:07;11.02;;;6.88;;
41167;SDS011;26906;45.658;9.272;2024-01-10T06:39:33;10.63;;;6.00;;
41167;SDS011;26906;45.658;9.272;2024-01-10T06:41:58;12.13;;;6.72;;
41167;SDS011;26906;45.658;9.272;2024-01-10T06:44:24;11.48;;;6.70;;
41167;SDS011;26906;45.658;9.272;2024-01-10T06:46:53;13.55;;;7.60;;
41167;SDS011;26906;45.658;9.272;2024-01-10T06:49:18;11.20;;;7.25;;
41167;SDS011;26906;45.658;9.272;2024-01-10T06:51:44;12.32;;;6.95;;
41167;SDS011;26906;45.658;9.272;2024-01-10T06:54:10;10.52;;;6.63;;
41167;SDS011;26906;45.658;9.272;2024-01-10T06:56:35;10.35;;;6.75;;
41167;SDS011;26906;45.658;9.272;2024-01-10T06:59:01;13.80;;;7.32;;
41167;SDS011;26906;45.658;9.272;2024-01-10T07:01:27;11.80;;;7.10;;
41167;SDS011;26906;45.658;9.272;2024-01-10T07:03:53;10.55;;;7.07;;
41167;SDS011;26906;45.658;9.272;2024-01-10T07:06:22;11.93;;;7.55;;
41167;SDS011;26906;45.658;9.272;2024-01-10T07:08:48;10.73;;;7.45;;
41167;SDS011;26906;45.658;9.272;2024-01-10T07:11:15;11.88;;;7.32;;
41167;SDS011;26906;45.658;9.272;2024-01-10T07:13:41;10.95;;;7.18;;
41167;SDS011;26906;45.658;9.272;2024-01-10T07:16:08;10.55;;;6.72;;
41167;SDS011;26906;45.658;9.272;2024-01-10T07:18:34;11.63;;;7.25;;
41167;SDS011;26906;45.658;9.272;2024-01-10T07:20:59;10.27;;;6.57;;
41167;SDS011;26906;45.658;9.272;2024-01-10T07:23:25;13.60;;;7.53;;
41167;SDS011;26906;45.658;9.272;2024-01-10T07:25:51;11.00;;;6.90;;
41167;SDS011;26906;45.658;9.272;2024-01-10T07:28:17;10.60;;;6.85;;
41167;SDS011;26906;45.658;9.272;2024-01-10T07:30:44;11.50;;;7.18;;
41167;SDS011;26906;45.658;9.272;2024-01-10T07:33:10;17.98;;;7.25;;
41167;SDS011;26906;45.658;9.272;2024-01-10T07:35:36;12.88;;;7.25;;
41167;SDS011;26906;45.658;9.272;2024-01-10T07:38:03;10.85;;;7.18;;
41167;SDS011;26906;45.658;9.272;2024-01-10T07:40:30;13.68;;;7.30;;
41167;SDS011;26906;45.658;9.272;2024-01-10T07:42:56;11.15;;;7.00;;
41167;SDS011;26906;45.658;9.272;2024-01-10T07:45:22;15.50;;;7.90;;
41167;SDS011;26906;45.658;9.272;2024-01-10T07:47:48;13.02;;;7.35;;
41167;SDS011;26906;45.658;9.272;2024-01-10T07:50:13;10.52;;;7.03;;
41167;SDS011;26906;45.658;9.272;2024-01-10T07:52:39;14.13;;;7.57;;
41167;SDS011;26906;45.658;9.272;2024-01-10T07:55:05;12.48;;;7.50;;
41167;SDS011;26906;45.658;9.272;2024-01-10T07:57:32;11.20;;;7.68;;
41167;SDS011;26906;45.658;9.272;2024-01-10T08:00:00;12.60;;;7.18;;
41167;SDS011;26906;45.658;9.272;2024-01-10T08:02:33;10.75;;;7.20;;
41167;SDS011;26906;45.658;9.272;2024-01-10T08:05:00;13.15;;;7.18;;
41167;SDS011;26906;45.658;9.272;2024-01-10T08:07:30;14.50;;;7.80;;
41167;SDS011;26906;45.658;9.272;2024-01-10T08:09:58;10.75;;;7.18;;
41167;SDS011;26906;45.658;9.272;2024-01-10T08:12:24;11.50;;;6.50;;
41167;SDS011;26906;45.658;9.272;2024-01-10T08:14:50;13.55;;;7.28;;
41167;SDS011;26906;45.658;9.272;2024-01-10T08:17:16;13.63;;;7.38;;
41167;SDS011;26906;45.658;9.272;2024-01-10T08:19:42;12.30;;;8.00;;
41167;SDS011;26906;45.658;9.272;2024-01-10T08:22:07;11.45;;;7.75;;
41167;SDS011;26906;45.658;9.272;2024-01-10T08:24:33;9.52;;;7.22;;
41167;SDS011;26906;45.658;9.272;2024-01-10T08:26:59;11.05;;;7.13;;
41167;SDS011;26906;45.658;9.272;2024-01-10T08:29:24;16.55;;;7.55;;
41167;SDS011;26906;45.658;9.272;2024-01-10T08:31:55;43.58;;;23.67;;
41167;SDS011;26906;45.658;9.272;2024-01-10T08:34:21;23.65;;;16.98;;
41167;SDS011;26906;45.658;9.272;2024-01-10T08:36:49;60.58;;;31.77;;
41167;SDS011;26906;45.658;9.272;2024-01-10T08:39:18;17.42;;;11.85;;
41167;SDS011;26906;45.658;9.272;2024-01-10T08:41:46;20.73;;;13.95;;
41167;SDS011;26906;45.658;9.272;2024-01-10T08:44:11;43.50;;;31.02;;
41167;SDS011;26906;45.658;9.272;2024-01-10T08:46:38;16.00;;;9.43;;
41167;SDS011;26906;45.658;9.272;2024-01-10T08:49:04;51.08;;;20.42;;
41167;SDS011;26906;45.658;9.272;2024-01-10T08:51:30;58.42;;;23.27;;
41167;SDS011;26906;45.658;9.272;2024-01-10T08:53:56;16.05;;;8.88;;
41167;SDS011;26906;45.658;9.272;2024-01-10T08:56:22;13.75;;;8.50;;
41167;SDS011;26906;45.658;9.272;2024-01-10T08:58:48;24.05;;;14.00;;
41167;SDS011;26906;45.658;9.272;2024-01-10T09:01:14;26.92;;;15.63;;
41167;SDS011;26906;45.658;9.272;2024-01-10T09:03:40;18.13;;;12.05;;
41167;SDS011;26906;45.658;9.272;2024-01-10T09:06:07;20.90;;;13.20;;
41167;SDS011;26906;45.658;9.272;2024-01-10T09:08:34;15.45;;;9.80;;
41167;SDS011;26906;45.658;9.272;2024-01-10T09:11:00;14.43;;;8.52;;
41167;SDS011;26906;45.658;9.272;2024-01-10T09:13:27;14.10;;;7.97;;
41167;SDS011;26906;45.658;9.272;2024-01-10T09:15:52;12.13;;;7.15;;
41167;SDS011;26906;45.658;9.272;2024-01-10T09:18:19;15.35;;;7.60;;
41167;SDS011;26906;45.658;9.272;2024-01-10T09:20:44;10.07;;;7.15;;
41167;SDS011;26906;45.658;9.272;2024-01-10T09:23:10;15.85;;;9.00;;
41167;SDS011;26906;45.658;9.272;2024-01-10T09:25:36;13.68;;;8.07;;
41167;SDS011;26906;45.658;9.272;2024-01-10T09:28:03;15.00;;;8.90;;
41167;SDS011;26906;45.658;9.272;2024-01-10T09:30:30;16.42;;;8.05;;
41167;SDS011;26906;45.658;9.272;2024-01-10T09:32:55;11.68;;;8.60;;
41167;SDS011;26906;45.658;9.272;2024-01-10T09:35:21;13.07;;;7.90;;
41167;SDS011;26906;45.658;9.272;2024-01-10T09:37:47;14.75;;;8.55;;
41167;SDS011;26906;45.658;9.272;2024-01-10T09:40:14;12.63;;;8.35;;
41167;SDS011;26906;45.658;9.272;2024-01-10T09:42:41;15.35;;;7.80;;
41167;SDS011;26906;45.658;9.272;2024-01-10T09:45:08;15.20;;;8.02;;
41167;SDS011;26906;45.658;9.272;2024-01-10T09:47:36;13.48;;;8.93;;
41167;SDS011;26906;45.658;9.272;2024-01-10T09:50:04;13.25;;;8.60;;
41167;SDS011;26906;45.658;9.272;2024-01-10T09:52:33;11.95;;;8.10;;
41167;SDS011;26906;45.658;9.272;2024-01-10T09:55:03;14.25;;;8.48;;
41167;SDS011;26906;45.658;9.272;2024-01-10T09:57:29;16.15;;;10.30;;
41167;SDS011;26906;45.658;9.272;2024-01-10T09:59:56;16.20;;;10.63;;
41167;SDS011;26906;45.658;9.272;2024-01-10T10:02:22;13.50;;;8.85;;
41167;SDS011;26906;45.658;9.272;2024-01-10T10:04:53;13.55;;;8.00;;
41167;SDS011;26906;45.658;9.272;2024-01-10T10:07:27;14.60;;;9.20;;
41167;SDS011;26906;45.658;9.272;2024-01-10T10:09:54;13.70;;;8.90;;
41167;SDS011;26906;45.658;9.272;2024-01-10T10:12:22;16.92;;;7.97;;
41167;SDS011;26906;45.658;9.272;2024-01-10T10:15:13;16.20;;;8.43;;
41167;SDS011;26906;45.658;9.272;2024-01-10T10:17:47;17.55;;;9.13;;
41167;SDS011;26906;45.658;9.272;2024-01-10T10:20:24;12.15;;;8.05;;
41167;SDS011;26906;45.658;9.272;2024-01-10T10:25:35;13.40;;;8.38;;
41167;SDS011;26906;45.658;9.272;2024-01-10T10:28:03;16.85;;;8.35;;
41167;SDS011;26906;45.658;9.272;2024-01-10T10:30:32;17.02;;;9.63;;
41167;SDS011;26906;45.658;9.272;2024-01-10T10:32:58;13.93;;;8.60;;
41167;SDS011;26906;45.658;9.272;2024-01-10T10:35:24;11.77;;;7.47;;
41167;SDS011;26906;45.658;9.272;2024-01-10T10:37:50;11.65;;;7.75;;
41167;SDS011;26906;45.658;9.272;2024-01-10T10:40:17;13.02;;;8.20;;
41167;SDS011;26906;45.658;9.272;2024-01-10T10:42:56;13.95;;;9.30;;
41167;SDS011;26906;45.658;9.272;2024-01-10T10:45:22;11.43;;;7.85;;
41167;SDS011;26906;45.658;9.272;2024-01-10T10:47:58;14.98;;;8.88;;
41167;SDS011;26906;45.658;9.272;2024-01-10T10:50:28;10.32;;;7.60;;
41167;SDS011;26906;45.658;9.272;2024-01-10T10:52:58;13.32;;;8.20;;
41167;SDS011;26906;45.658;9.272;2024-01-10T10:55:25;11.57;;;8.43;;
41167;SDS011;26906;45.658;9.272;2024-01-10T10:57:52;17.13;;;8.27;;
41167;SDS011;26906;45.658;9.272;2024-01-10T11:00:20;13.50;;;8.13;;
41167;SDS011;26906;45.658;9.272;2024-01-10T11:02:52;13.95;;;7.93;;
41167;SDS011;26906;45.658;9.272;2024-01-10T11:05:19;15.35;;;8.20;;
41167;SDS011;26906;45.658;9.272;2024-01-10T11:07:45;16.33;;;12.90;;
41167;SDS011;26906;45.658;9.272;2024-01-10T11:10:18;16.70;;;12.57;;
41167;SDS011;26906;45.658;9.272;2024-01-10T11:18:54;10.75;;;7.90;;
41167;SDS011;26906;45.658;9.272;2024-01-10T11:24:24;12.85;;;8.00;;
41167;SDS011;26906;45.658;9.272;2024-01-10T11:26:59;12.77;;;7.88;;
41167;SDS011;26906;45.658;9.272;2024-01-10T11:29:32;12.85;;;8.40;;
41167;SDS011;26906;45.658;9.272;2024-01-10T11:31:58;13.13;;;8.15;;
41167;SDS011;26906;45.658;9.272;2024-01-10T11:34:24;13.07;;;8.82;;
41167;SDS011;26906;45.658;9.272;2024-01-10T11:37:09;11.13;;;8.48;;
41167;SDS011;26906;45.658;9.272;2024-01-10T11:39:36;13.90;;;8.45;;
41167;SDS011;26906;45.658;9.272;2024-01-10T11:42:02;15.65;;;9.20;;
41167;SDS011;26906;45.658;9.272;2024-01-10T11:44:28;14.90;;;7.93;;
41167;SDS011;26906;45.658;9.272;2024-01-10T11:46:58;13.02;;;8.15;;
41167;SDS011;26906;45.658;9.272;2024-01-10T11:49:24;12.50;;;7.82;;
41167;SDS011;26906;45.658;9.272;2024-01-10T11:52:00;12.98;;;7.60;;
41167;SDS011;26906;45.658;9.272;2024-01-10T11:54:52;14.05;;;8.52;;
41167;SDS011;26906;45.658;9.272;2024-01-10T11:57:22;11.98;;;7.78;;
41167;SDS011;26906;45.658;9.272;2024-01-10T11:59:55;12.50;;;8.27;;
41167;SDS011;26906;45.658;9.272;2024-01-10T12:02:22;11.15;;;8.25;;
41167;SDS011;26906;45.658;9.272;2024-01-10T12:04:52;12.85;;;8.65;;
41167;SDS011;26906;45.658;9.272;2024-01-10T12:07:20;13.68;;;8.57;;
41167;SDS011;26906;45.658;9.272;2024-01-10T12:09:46;12.98;;;8.63;;
41167;SDS011;26906;45.658;9.272;2024-01-10T12:12:13;17.77;;;9.25;;
41167;SDS011;26906;45.658;9.272;2024-01-10T12:14:39;18.15;;;9.00;;
41167;SDS011;26906;45.658;9.272;2024-01-10T12:17:05;16.65;;;9.48;;
41167;SDS011;26906;45.658;9.272;2024-01-10T12:19:33;14.07;;;8.82;;
41167;SDS011;26906;45.658;9.272;2024-01-10T12:22:01;12.88;;;8.55;;
41167;SDS011;26906;45.658;9.272;2024-01-10T12:24:27;11.25;;;8.50;;
41167;SDS011;26906;45.658;9.272;2024-01-10T12:26:54;14.43;;;8.45;;
41167;SDS011;26906;45.658;9.272;2024-01-10T12:29:20;11.52;;;8.27;;
41167;SDS011;26906;45.658;9.272;2024-01-10T12:31:47;19.10;;;8.73;;
41167;SDS011;26906;45.658;9.272;2024-01-10T12:34:13;23.45;;;10.00;;
41167;SDS011;26906;45.658;9.272;2024-01-10T12:36:40;13.65;;;9.48;;
41167;SDS011;26906;45.658;9.272;2024-01-10T12:39:06;15.27;;;9.07;;
41167;SDS011;26906;45.658;9.272;2024-01-10T12:41:33;12.63;;;8.25;;
41167;SDS011;26906;45.658;9.272;2024-01-10T12:44:02;13.90;;;8.48;;
41167;SDS011;26906;45.658;9.272;2024-01-10T12:46:30;14.30;;;9.20;;
41167;SDS011;26906;45.658;9.272;2024-01-10T12:49:00;14.35;;;9.07;;
41167;SDS011;26906;45.658;9.272;2024-01-10T12:51:33;18.65;;;9.27;;
41167;SDS011;26906;45.658;9.272;2024-01-10T12:54:01;15.95;;;10.25;;
41167;SDS011;26906;45.658;9.272;2024-01-10T12:56:29;14.50;;;9.55;;
41167;SDS011;26906;45.658;9.272;2024-01-10T12:58:55;16.50;;;8.82;;
41167;SDS011;26906;45.658;9.272;2024-01-10T13:01:22;16.27;;;9.60;;
41167;SDS011;26906;45.658;9.272;2024-01-10T13:03:48;13.57;;;9.32;;
41167;SDS011;26906;45.658;9.272;2024-01-10T13:06:15;14.18;;;9.73;;
41167;SDS011;26906;45.658;9.272;2024-01-10T13:08:42;15.57;;;9.32;;
41167;SDS011;26906;45.658;9.272;2024-01-10T13:11:08;16.65;;;9.35;;
41167;SDS011;26906;45.658;9.272;2024-01-10T13:13:35;14.45;;;9.35;;
41167;SDS011;26906;45.658;9.272;2024-01-10T13:16:00;13.30;;;8.90;;
41167;SDS011;26906;45.658;9.272;2024-01-10T13:18:28;13.35;;;8.70;;
41167;SDS011;26906;45.658;9.272;2024-01-10T13:20:54;13.63;;;8.82;;
41167;SDS011;26906;45.658;9.272;2024-01-10T13:23:20;16.75;;;9.38;;
41167;SDS011;26906;45.658;9.272;2024-01-10T13:25:50;20.05;;;11.13;;
41167;SDS011;26906;45.658;9.272;2024-01-10T13:28:16;15.75;;;9.82;;
41167;SDS011;26906;45.658;9.272;2024-01-10T13:30:42;13.27;;;8.80;;
41167;SDS011;26906;45.658;9.272;2024-01-10T13:33:10;13.88;;;9.35;;
41167;SDS011;26906;45.658;9.272;2024-01-10T13:35:36;15.25;;;9.27;;
41167;SDS011;26906;45.658;9.272;2024-01-10T13:38:02;12.45;;;9.13;;
41167;SDS011;26906;45.658;9.272;2024-01-10T13:40:30;16.42;;;9.95;;
41167;SDS011;26906;45.658;9.272;2024-01-10T13:42:59;13.80;;;9.35;;
41167;SDS011;26906;45.658;9.272;2024-01-10T13:45:29;14.70;;;8.88;;
41167;SDS011;26906;45.658;9.272;2024-01-10T13:47:54;19.92;;;11.20;;
41167;SDS011;26906;45.658;9.272;2024-01-10T13:50:20;18.25;;;12.02;;
41167;SDS011;26906;45.658;9.272;2024-01-10T13:52:46;15.60;;;10.20;;
41167;SDS011;26906;45.658;9.272;2024-01-10T13:55:12;17.10;;;11.00;;
41167;SDS011;26906;45.658;9.272;2024-01-10T13:57:38;19.92;;;9.75;;
41167;SDS011;26906;45.658;9.272;2024-01-10T14:00:05;18.58;;;10.07;;
41167;SDS011;26906;45.658;9.272;2024-01-10T14:02:37;25.42;;;10.55;;
41167;SDS011;26906;45.658;9.272;2024-01-10T14:05:02;17.00;;;9.65;;
41167;SDS011;26906;45.658;9.272;2024-01-10T14:07:32;35.28;;;10.02;;
41167;SDS011;26906;45.658;9.272;2024-01-10T14:09:59;26.50;;;10.52;;
41167;SDS011;26906;45.658;9.272;2024-01-10T14:12:26;37.00;;;11.23;;
41167;SDS011;26906;45.658;9.272;2024-01-10T14:14:53;15.00;;;9.68;;
41167;SDS011;26906;45.658;9.272;2024-01-10T14:17:18;25.40;;;10.05;;
41167;SDS011;26906;45.658;9.272;2024-01-10T14:19:44;15.75;;;9.88;;
41167;SDS011;26906;45.658;9.272;2024-01-10T14:22:10;20.80;;;10.05;;
41167;SDS011;26906;45.658;9.272;2024-01-10T14:24:36;15.13;;;9.98;;
41167;SDS011;26906;45.658;9.272;2024-01-10T14:27:04;15.85;;;9.27;;
41167;SDS011;26906;45.658;9.272;2024-01-10T14:29:29;14.05;;;9.32;;
41167;SDS011;26906;45.658;9.272;2024-01-10T14:31:56;17.25;;;10.30;;
41167;SDS011;26906;45.658;9.272;2024-01-10T14:34:22;15.82;;;9.93;;
41167;SDS011;26906;45.658;9.272;2024-01-10T14:36:47;13.38;;;9.73;;
41167;SDS011;26906;45.658;9.272;2024-01-10T14:39:13;14.00;;;9.75;;
41167;SDS011;26906;45.658;9.272;2024-01-10T14:41:40;15.40;;;10.45;;
41167;SDS011;26906;45.658;9.272;2024-01-10T14:44:06;16.52;;;10.00;;
41167;SDS011;26906;45.658;9.272;2024-01-10T14:46:31;13.55;;;10.20;;
41167;SDS011;26906;45.658;9.272;2024-01-10T14:48:57;15.70;;;9.95;;
41167;SDS011;26906;45.658;9.272;2024-01-10T14:51:22;16.42;;;10.27;;
41167;SDS011;26906;45.658;9.272;2024-01-10T14:53:48;15.57;;;10.07;;
41167;SDS011;26906;45.658;9.272;2024-01-10T14:56:16;19.75;;;10.27;;
41167;SDS011;26906;45.658;9.272;2024-01-10T14:58:43;14.82;;;10.32;;
41167;SDS011;26906;45.658;9.272;2024-01-10T15:01:10;19.73;;;10.15;;
41167;SDS011;26906;45.658;9.272;2024-01-10T15:03:36;18.17;;;10.55;;
41167;SDS011;26906;45.658;9.272;2024-01-10T15:06:05;16.17;;;10.38;;
41167;SDS011;26906;45.658;9.272;2024-01-10T15:08:31;16.77;;;10.05;;
41167;SDS011;26906;45.658;9.272;2024-01-10T15:10:59;16.30;;;9.88;;
41167;SDS011;26906;45.658;9.272;2024-01-10T15:13:24;19.23;;;10.18;;
41167;SDS011;26906;45.658;9.272;2024-01-10T15:15:50;17.00;;;10.85;;
41167;SDS011;26906;45.658;9.272;2024-01-10T15:18:16;18.38;;;10.07;;
41167;SDS011;26906;45.658;9.272;2024-01-10T15:20:42;16.77;;;10.60;;
41167;SDS011;26906;45.658;9.272;2024-01-10T15:23:08;16.90;;;10.77;;
41167;SDS011;26906;45.658;9.272;2024-01-10T15:25:34;19.13;;;10.60;;
41167;SDS011;26906;45.658;9.272;2024-01-10T15:28:01;18.08;;;10.20;;
41167;SDS011;26906;45.658;9.272;2024-01-10T15:30:28;15.70;;;10.63;;
41167;SDS011;26906;45.658;9.272;2024-01-10T15:32:54;17.25;;;10.85;;
41167;SDS011;26906;45.658;9.272;2024-01-10T15:35:20;19.52;;;10.48;;
41167;SDS011;26906;45.658;9.272;2024-01-10T15:37:46;21.08;;;10.82;;
41167;SDS011;26906;45.658;9.272;2024-01-10T15:40:12;16.58;;;10.00;;
41167;SDS011;26906;45.658;9.272;2024-01-10T15:42:39;18.20;;;10.48;;
41167;SDS011;26906;45.658;9.272;2024-01-10T15:45:08;23.77;;;10.52;;
41167;SDS011;26906;45.658;9.272;2024-01-10T15:47:37;21.52;;;11.25;;
41167;SDS011;26906;45.658;9.272;2024-01-10T15:50:05;16.52;;;10.55;;
41167;SDS011;26906;45.658;9.272;2024-01-10T15:52:33;17.90;;;10.82;;
41167;SDS011;26906;45.658;9.272;2024-01-10T15:55:03;23.08;;;11.63;;
41167;SDS011;26906;45.658;9.272;2024-01-10T15:57:29;16.30;;;10.27;;
41167;SDS011;26906;45.658;9.272;2024-01-10T15:59:54;17.25;;;10.68;;
41167;SDS011;26906;45.658;9.272;2024-01-10T16:02:22;18.27;;;11.40;;
41167;SDS011;26906;45.658;9.272;2024-01-10T16:04:47;22.83;;;11.98;;
41167;SDS011;26906;45.658;9.272;2024-01-10T16:07:13;20.30;;;11.40;;
41167;SDS011;26906;45.658;9.272;2024-01-10T16:09:39;17.52;;;11.40;;
41167;SDS011;26906;45.658;9.272;2024-01-10T16:12:05;20.77;;;11.30;;
41167;SDS011;26906;45.658;9.272;2024-01-10T16:14:31;20.90;;;10.70;;
41167;SDS011;26906;45.658;9.272;2024-01-10T16:17:00;24.25;;;11.30;;
41167;SDS011;26906;45.658;9.272;2024-01-10T16:19:26;17.85;;;11.00;;
41167;SDS011;26906;45.658;9.272;2024-01-10T16:21:52;20.05;;;11.75;;
41167;SDS011;26906;45.658;9.272;2024-01-10T16:24:21;22.05;;;11.27;;
41167;SDS011;26906;45.658;9.272;2024-01-10T16:26:47;23.48;;;12.25;;
41167;SDS011;26906;45.658;9.272;2024-01-10T16:29:13;22.00;;;13.77;;
41167;SDS011;26906;45.658;9.272;2024-01-10T16:31:40;19.98;;;11.52;;
41167;SDS011;26906;45.658;9.272;2024-01-10T16:34:06;21.83;;;11.75;;
41167;SDS011;26906;45.658;9.272;2024-01-10T16:36:32;18.17;;;11.40;;
41167;SDS011;26906;45.658;9.272;2024-01-10T16:38:58;20.95;;;12.15;;
41167;SDS011;26906;45.658;9.272;2024-01-10T16:41:23;23.73;;;12.70;;
41167;SDS011;26906;45.658;9.272;2024-01-10T16:43:49;19.55;;;12.00;;
41167;SDS011;26906;45.658;9.272;2024-01-10T16:46:15;25.75;;;12.48;;
41167;SDS011;26906;45.658;9.272;2024-01-10T16:48:40;27.35;;;13.50;;
41167;SDS011;26906;45.658;9.272;2024-01-10T16:51:06;23.02;;;13.75;;
41167;SDS011;26906;45.658;9.272;2024-01-10T16:53:35;40.65;;;18.27;;
41167;SDS011;26906;45.658;9.272;2024-01-10T16:56:00;63.88;;;22.77;;
41167;SDS011;26906;45.658;9.272;2024-01-10T16:58:26;30.55;;;15.93;;
41167;SDS011;26906;45.658;9.272;2024-01-10T17:00:52;30.33;;;15.27;;
41167;SDS011;26906;45.658;9.272;2024-01-10T17:03:19;20.65;;;12.60;;
41167;SDS011;26906;45.658;9.272;2024-01-10T17:05:46;21.45;;;13.40;;
41167;SDS011;26906;45.658;9.272;2024-01-10T17:08:12;21.42;;;12.65;;
41167;SDS011;26906;45.658;9.272;2024-01-10T17:10:38;27.10;;;14.25;;
41167;SDS011;26906;45.658;9.272;2024-01-10T17:13:03;32.53;;;17.38;;
41167;SDS011;26906;45.658;9.272;2024-01-10T17:15:29;31.63;;;18.48;;
41167;SDS011;26906;45.658;9.272;2024-01-10T17:17:56;32.75;;;19.67;;
41167;SDS011;26906;45.658;9.272;2024-01-10T17:20:22;22.60;;;13.13;;
41167;SDS011;26906;45.658;9.272;2024-01-10T17:22:50;25.30;;;13.57;;
41167;SDS011;26906;45.658;9.272;2024-01-10T17:25:18;24.30;;;14.68;;
41167;SDS011;26906;45.658;9.272;2024-01-10T17:27:44;22.27;;;12.60;;
41167;SDS011;26906;45.658;9.272;2024-01-10T17:30:10;20.00;;;12.82;;
41167;SDS011;26906;45.658;9.272;2024-01-10T17:32:37;17.17;;;11.85;;
41167;SDS011;26906;45.658;9.272;2024-01-10T17:35:02;26.65;;;14.55;;
41167;SDS011;26906;45.658;9.272;2024-01-10T17:37:28;21.02;;;12.30;;
41167;SDS011;26906;45.658;9.272;2024-01-10T17:39:54;21.35;;;12.52;;
41167;SDS011;26906;45.658;9.272;2024-01-10T17:42:20;19.83;;;12.82;;
41167;SDS011;26906;45.658;9.272;2024-01-10T17:44:46;19.60;;;12.82;;
41167;SDS011;26906;45.658;9.272;2024-01-10T17:47:12;21.92;;;12.73;;
41167;SDS011;26906;45.658;9.272;2024-01-10T17:49:39;18.55;;;12.20;;
41167;SDS011;26906;45.658;9.272;2024-01-10T17:52:04;23.00;;;12.68;;
41167;SDS011;26906;45.658;9.272;2024-01-10T17:54:32;20.27;;;12.52;;
41167;SDS011;26906;45.658;9.272;2024-01-10T17:56:58;17.73;;;12.43;;
41167;SDS011;26906;45.658;9.272;2024-01-10T17:59:24;18.77;;;12.82;;
41167;SDS011;26906;45.658;9.272;2024-01-10T18:01:49;17.85;;;11.80;;
41167;SDS011;26906;45.658;9.272;2024-01-10T18:04:15;17.80;;;11.95;;
41167;SDS011;26906;45.658;9.272;2024-01-10T18:06:43;19.30;;;11.15;;
41167;SDS011;26906;45.658;9.272;2024-01-10T18:09:09;15.90;;;10.95;;
41167;SDS011;26906;45.658;9.272;2024-01-10T18:11:35;20.55;;;11.00;;
41167;SDS011;26906;45.658;9.272;2024-01-10T18:14:00;16.70;;;10.98;;
41167;SDS011;26906;45.658;9.272;2024-01-10T18:16:26;18.83;;;11.32;;
41167;SDS011;26906;45.658;9.272;2024-01-10T18:18:51;16.58;;;11.18;;
41167;SDS011;26906;45.658;9.272;2024-01-10T18:21:17;17.48;;;10.98;;
41167;SDS011;26906;45.658;9.272;2024-01-10T18:23:49;17.15;;;10.68;;
41167;SDS011;26906;45.658;9.272;2024-01-10T18:26:22;13.57;;;10.40;;
41167;SDS011;26906;45.658;9.272;2024-01-10T18:28:49;16.88;;;10.65;;
41167;SDS011;26906;45.658;9.272;2024-01-10T18:31:15;17.45;;;10.82;;
41167;SDS011;26906;45.658;9.272;2024-01-10T18:33:41;16.55;;;10.93;;
41167;SDS011;26906;45.658;9.272;2024-01-10T18:36:06;16.30;;;10.73;;
41167;SDS011;26906;45.658;9.272;2024-01-10T18:38:33;15.70;;;10.55;;
41167;SDS011;26906;45.658;9.272;2024-01-10T18:40:58;18.25;;;10.15;;
41167;SDS011;26906;45.658;9.272;2024-01-10T18:43:24;21.08;;;11.82;;
41167;SDS011;26906;45.658;9.272;2024-01-10T18:45:50;15.30;;;10.68;;
41167;SDS011;26906;45.658;9.272;2024-01-10T18:48:16;17.40;;;11.18;;
41167;SDS011;26906;45.658;9.272;2024-01-10T18:50:41;15.95;;;10.88;;
41167;SDS011;26906;45.658;9.272;2024-01-10T18:53:07;19.92;;;11.77;;
41167;SDS011;26906;45.658;9.272;2024-01-10T18:55:32;24.42;;;13.15;;
41167;SDS011;26906;45.658;9.272;2024-01-10T18:58:00;18.63;;;11.75;;
41167;SDS011;26906;45.658;9.272;2024-01-10T19:00:26;16.55;;;11.27;;
41167;SDS011;26906;45.658;9.272;2024-01-10T19:02:52;18.30;;;12.05;;
41167;SDS011;26906;45.658;9.272;2024-01-10T19:05:18;17.52;;;11.07;;
41167;SDS011;26906;45.658;9.272;2024-01-10T19:07:46;19.02;;;11.88;;
41167;SDS011;26906;45.658;9.272;2024-01-10T19:10:12;20.55;;;13.18;;
41167;SDS011;26906;45.658;9.272;2024-01-10T19:12:38;22.25;;;11.63;;
41167;SDS011;26906;45.658;9.272;2024-01-10T19:15:04;17.40;;;11.02;;
41167;SDS011;26906;45.658;9.272;2024-01-10T19:17:31;18.35;;;11.93;;
41167;SDS011;26906;45.658;9.272;2024-01-10T19:19:57;23.10;;;12.52;;
41167;SDS011;26906;45.658;9.272;2024-01-10T19:22:23;16.92;;;10.85;;
41167;SDS011;26906;45.658;9.272;2024-01-10T19:24:48;18.15;;;12.10;;
41167;SDS011;26906;45.658;9.272;2024-01-10T19:27:14;19.52;;;12.82;;
41167;SDS011;26906;45.658;9.272;2024-01-10T19:29:41;23.42;;;14.43;;
41167;SDS011;26906;45.658;9.272;2024-01-10T19:32:07;20.52;;;12.90;;
41167;SDS011;26906;45.658;9.272;2024-01-10T19:34:33;31.83;;;18.13;;
41167;SDS011;26906;45.658;9.272;2024-01-10T19:36:59;36.25;;;17.83;;
41167;SDS011;26906;45.658;9.272;2024-01-10T19:39:24;24.20;;;13.80;;
41167;SDS011;26906;45.658;9.272;2024-01-10T19:41:50;19.60;;;12.52;;
41167;SDS011;26906;45.658;9.272;2024-01-10T19:44:16;20.42;;;12.98;;
41167;SDS011;26906;45.658;9.272;2024-01-10T19:46:42;20.10;;;12.98;;
41167;SDS011;26906;45.658;9.272;2024-01-10T19:49:09;20.83;;;12.57;;
41167;SDS011;26906;45.658;9.272;2024-01-10T19:51:34;22.15;;;12.15;;
41167;SDS011;26906;45.658;9.272;2024-01-10T19:54:00;22.48;;;12.73;;
41167;SDS011;26906;45.658;9.272;2024-01-10T19:56:26;18.55;;;12.45;;
41167;SDS011;26906;45.658;9.272;2024-01-10T19:58:54;20.48;;;12.80;;
41167;SDS011;26906;45.658;9.272;2024-01-10T20:01:20;21.45;;;12.00;;
41167;SDS011;26906;45.658;9.272;2024-01-10T20:03:46;18.08;;;12.07;;
41167;SDS011;26906;45.658;9.272;2024-01-10T20:06:11;20.10;;;13.02;;
41167;SDS011;26906;45.658;9.272;2024-01-10T20:08:38;22.95;;;12.95;;
41167;SDS011;26906;45.658;9.272;2024-01-10T20:11:04;18.15;;;12.27;;
41167;SDS011;26906;45.658;9.272;2024-01-10T20:13:31;19.45;;;12.45;;
41167;SDS011;26906;45.658;9.272;2024-01-10T20:15:58;20.00;;;13.32;;
41167;SDS011;26906;45.658;9.272;2024-01-10T20:18:24;19.85;;;13.05;;
41167;SDS011;26906;45.658;9.272;2024-01-10T20:20:51;17.92;;;12.52;;
41167;SDS011;26906;45.658;9.272;2024-01-10T20:23:16;20.70;;;12.52;;
41167;SDS011;26906;45.658;9.272;2024-01-10T20:25:47;17.50;;;12.52;;
41167;SDS011;26906;45.658;9.272;2024-01-10T20:28:13;19.35;;;11.65;;
41167;SDS011;26906;45.658;9.272;2024-01-10T20:30:40;18.90;;;12.65;;
41167;SDS011;26906;45.658;9.272;2024-01-10T20:33:06;18.80;;;13.45;;
41167;SDS011;26906;45.658;9.272;2024-01-10T20:35:32;18.27;;;12.98;;
41167;SDS011;26906;45.658;9.272;2024-01-10T20:37:57;22.40;;;14.40;;
41167;SDS011;26906;45.658;9.272;2024-01-10T20:40:23;22.35;;;13.50;;
41167;SDS011;26906;45.658;9.272;2024-01-10T20:42:49;19.02;;;12.57;;
41167;SDS011;26906;45.658;9.272;2024-01-10T20:45:14;20.55;;;13.15;;
41167;SDS011;26906;45.658;9.272;2024-01-10T20:47:44;19.98;;;12.63;;
41167;SDS011;26906;45.658;9.272;2024-01-10T20:50:11;16.90;;;12.40;;
41167;SDS011;26906;45.658;9.272;2024-01-10T20:52:37;18.15;;;12.65;;
41167;SDS011;26906;45.658;9.272;2024-01-10T20:55:03;22.50;;;13.68;;
41167;SDS011;26906;45.658;9.272;2024-01-10T20:57:29;23.50;;;13.73;;
41167;SDS011;26906;45.658;9.272;2024-01-10T20:59:55;20.25;;;12.30;;
41167;SDS011;26906;45.658;9.272;2024-01-10T21:02:26;19.45;;;13.05;;
41167;SDS011;26906;45.658;9.272;2024-01-10T21:04:51;18.73;;;12.65;;
41167;SDS011;26906;45.658;9.272;2024-01-10T21:07:17;19.55;;;13.02;;
41167;SDS011;26906;45.658;9.272;2024-01-10T21:09:44;23.02;;;15.50;;
41167;SDS011;26906;45.658;9.272;2024-01-10T21:12:10;22.30;;;14.63;;